sensor_id;sensor_type;location;lat;lon;timestamp;P1;durP1;ratioP1;P2;durP2;ratioP2
69034;SDS011;56091;55.756;37.412;2023-04-24T00:03:21;18.25;;;6.47;;
69034;SDS011;56091;55.756;37.412;2023-04-24T00:08:22;18.77;;;6.70;;
69034;SDS011;56091;55.756;37.412;2023-04-24T00:13:24;16.92;;;7.22;;
69034;SDS011;56091;55.756;37.412;2023-04-24T00:18:24;15.97;;;7.37;;
69034;SDS011;56091;55.756;37.412;2023-04-24T00:23:25;16.20;;;7.50;;
69034;SDS011;56091;55.756;37.412;2023-04-24T00:28:26;17.25;;;7.68;;
69034;SDS011;56091;55.756;37.412;2023-04-24T00:33:27;12.80;;;7.07;;
69034;SDS011;56091;55.756;37.412;2023-04-24T00:38:28;14.55;;;7.10;;
69034;SDS011;56091;55.756;37.412;2023-04-24T00:43:28;17.07;;;7.60;;
69034;SDS011;56091;55.756;37.412;2023-04-24T00:48:30;16.50;;;7.88;;
69034;SDS011;56091;55.756;37.412;2023-04-24T00:53:32;18.67;;;7.73;;
69034;SDS011;56091;55.756;37.412;2023-04-24T00:58:33;17.48;;;7.88;;
69034;SDS011;56091;55.756;37.412;2023-04-24T01:03:34;16.40;;;8.13;;
69034;SDS011;56091;55.756;37.412;2023-04-24T01:08:37;21.35;;;7.93;;
69034;SDS011;56091;55.756;37.412;2023-04-24T01:13:39;20.27;;;8.20;;
69034;SDS011;56091;55.756;37.412;2023-04-24T01:18:40;18.58;;;8.70;;
69034;SDS011;56091;55.756;37.412;2023-04-24T01:23:42;17.60;;;8.53;;
69034;SDS011;56091;55.756;37.412;2023-04-24T01:28:44;17.23;;;8.00;;
69034;SDS011;56091;55.756;37.412;2023-04-24T01:33:45;20.73;;;8.77;;
69034;SDS011;56091;55.756;37.412;2023-04-24T01:38:49;21.88;;;8.52;;
69034;SDS011;56091;55.756;37.412;2023-04-24T01:43:52;17.30;;;8.30;;
69034;SDS011;56091;55.756;37.412;2023-04-24T01:48:54;19.48;;;8.45;;
69034;SDS011;56091;55.756;37.412;2023-04-24T01:53:56;16.40;;;8.50;;
69034;SDS011;56091;55.756;37.412;2023-04-24T01:58:57;17.27;;;8.63;;
69034;SDS011;56091;55.756;37.412;2023-04-24T02:03:59;17.80;;;8.40;;
69034;SDS011;56091;55.756;37.412;2023-04-24T02:09:00;17.25;;;8.38;;
69034;SDS011;56091;55.756;37.412;2023-04-24T02:14:02;17.73;;;9.23;;
69034;SDS011;56091;55.756;37.412;2023-04-24T02:19:03;16.25;;;8.85;;
69034;SDS011;56091;55.756;37.412;2023-04-24T02:24:04;17.50;;;9.17;;
69034;SDS011;56091;55.756;37.412;2023-04-24T02:29:05;16.88;;;8.50;;
69034;SDS011;56091;55.756;37.412;2023-04-24T02:34:06;19.50;;;9.07;;
69034;SDS011;56091;55.756;37.412;2023-04-24T02:39:07;19.70;;;8.75;;
69034;SDS011;56091;55.756;37.412;2023-04-24T02:44:08;20.40;;;9.23;;
69034;SDS011;56091;55.756;37.412;2023-04-24T02:49:09;18.20;;;8.63;;
69034;SDS011;56091;55.756;37.412;2023-04-24T02:54:10;17.47;;;9.77;;
69034;SDS011;56091;55.756;37.412;2023-04-24T02:59:11;19.87;;;9.90;;
69034;SDS011;56091;55.756;37.412;2023-04-24T03:04:12;20.95;;;9.32;;
69034;SDS011;56091;55.756;37.412;2023-04-24T03:09:13;20.13;;;9.70;;
69034;SDS011;56091;55.756;37.412;2023-04-24T03:14:14;17.25;;;9.60;;
69034;SDS011;56091;55.756;37.412;2023-04-24T03:19:16;21.13;;;9.97;;
69034;SDS011;56091;55.756;37.412;2023-04-24T03:24:33;20.80;;;9.73;;
69034;SDS011;56091;55.756;37.412;2023-04-24T03:29:34;18.03;;;10.03;;
69034;SDS011;56091;55.756;37.412;2023-04-24T03:34:35;20.20;;;9.40;;
69034;SDS011;56091;55.756;37.412;2023-04-24T03:39:37;21.57;;;10.50;;
69034;SDS011;56091;55.756;37.412;2023-04-24T03:44:38;23.25;;;9.80;;
69034;SDS011;56091;55.756;37.412;2023-04-24T03:49:39;21.17;;;10.20;;
69034;SDS011;56091;55.756;37.412;2023-04-24T03:54:40;21.35;;;9.95;;
69034;SDS011;56091;55.756;37.412;2023-04-24T03:59:41;21.77;;;10.23;;
69034;SDS011;56091;55.756;37.412;2023-04-24T04:04:57;17.92;;;9.35;;
69034;SDS011;56091;55.756;37.412;2023-04-24T04:09:57;23.40;;;10.00;;
69034;SDS011;56091;55.756;37.412;2023-04-24T04:14:59;24.25;;;10.15;;
69034;SDS011;56091;55.756;37.412;2023-04-24T04:20:00;18.90;;;10.10;;
69034;SDS011;56091;55.756;37.412;2023-04-24T04:25:04;18.80;;;9.60;;
69034;SDS011;56091;55.756;37.412;2023-04-24T04:30:06;17.80;;;9.70;;
69034;SDS011;56091;55.756;37.412;2023-04-24T04:35:16;23.10;;;9.90;;
69034;SDS011;56091;55.756;37.412;2023-04-24T04:40:17;18.80;;;9.40;;
69034;SDS011;56091;55.756;37.412;2023-04-24T04:45:26;19.80;;;9.77;;
69034;SDS011;56091;55.756;37.412;2023-04-24T04:51:00;17.60;;;9.87;;
69034;SDS011;56091;55.756;37.412;2023-04-24T04:56:05;30.95;;;10.20;;
69034;SDS011;56091;55.756;37.412;2023-04-24T05:01:18;22.20;;;9.37;;
69034;SDS011;56091;55.756;37.412;2023-04-24T05:06:24;17.75;;;9.73;;
69034;SDS011;56091;55.756;37.412;2023-04-24T05:11:28;25.00;;;10.23;;
69034;SDS011;56091;55.756;37.412;2023-04-24T05:16:31;18.25;;;10.07;;
69034;SDS011;56091;55.756;37.412;2023-04-24T05:21:32;19.97;;;10.07;;
69034;SDS011;56091;55.756;37.412;2023-04-24T05:26:34;21.23;;;10.38;;
69034;SDS011;56091;55.756;37.412;2023-04-24T05:31:36;26.80;;;11.23;;
69034;SDS011;56091;55.756;37.412;2023-04-24T05:36:37;25.30;;;9.95;;
69034;SDS011;56091;55.756;37.412;2023-04-24T05:41:38;30.03;;;9.73;;
69034;SDS011;56091;55.756;37.412;2023-04-24T05:46:39;25.45;;;9.38;;
69034;SDS011;56091;55.756;37.412;2023-04-24T05:51:40;19.17;;;9.40;;
69034;SDS011;56091;55.756;37.412;2023-04-24T05:56:41;19.05;;;8.00;;
69034;SDS011;56091;55.756;37.412;2023-04-24T06:01:42;18.57;;;8.30;;
69034;SDS011;56091;55.756;37.412;2023-04-24T06:06:49;22.60;;;8.80;;
69034;SDS011;56091;55.756;37.412;2023-04-24T06:11:53;24.63;;;8.93;;
69034;SDS011;56091;55.756;37.412;2023-04-24T06:16:59;23.92;;;8.57;;
69034;SDS011;56091;55.756;37.412;2023-04-24T06:22:09;20.07;;;7.77;;
69034;SDS011;56091;55.756;37.412;2023-04-24T06:27:12;20.15;;;7.15;;
69034;SDS011;56091;55.756;37.412;2023-04-24T06:32:16;16.60;;;7.30;;
69034;SDS011;56091;55.756;37.412;2023-04-24T06:37:17;17.52;;;7.45;;
69034;SDS011;56091;55.756;37.412;2023-04-24T06:42:19;15.57;;;7.10;;
69034;SDS011;56091;55.756;37.412;2023-04-24T06:47:24;16.88;;;6.38;;
69034;SDS011;56091;55.756;37.412;2023-04-24T06:52:25;12.93;;;6.37;;
69034;SDS011;56091;55.756;37.412;2023-04-24T06:57:26;18.02;;;6.47;;
69034;SDS011;56091;55.756;37.412;2023-04-24T07:02:26;13.90;;;6.13;;
69034;SDS011;56091;55.756;37.412;2023-04-24T07:07:27;14.87;;;6.37;;
69034;SDS011;56091;55.756;37.412;2023-04-24T07:12:28;16.52;;;5.45;;
69034;SDS011;56091;55.756;37.412;2023-04-24T07:17:29;14.13;;;6.10;;
69034;SDS011;56091;55.756;37.412;2023-04-24T07:22:35;16.95;;;6.38;;
69034;SDS011;56091;55.756;37.412;2023-04-24T07:27:37;12.40;;;5.80;;
69034;SDS011;56091;55.756;37.412;2023-04-24T07:32:40;21.95;;;6.70;;
69034;SDS011;56091;55.756;37.412;2023-04-24T07:37:40;17.90;;;6.43;;
69034;SDS011;56091;55.756;37.412;2023-04-24T07:42:46;12.32;;;5.85;;
69034;SDS011;56091;55.756;37.412;2023-04-24T07:47:48;12.43;;;6.40;;
69034;SDS011;56091;55.756;37.412;2023-04-24T07:52:50;12.50;;;5.90;;
69034;SDS011;56091;55.756;37.412;2023-04-24T07:57:51;12.17;;;6.30;;
69034;SDS011;56091;55.756;37.412;2023-04-24T08:02:52;12.40;;;5.95;;
69034;SDS011;56091;55.756;37.412;2023-04-24T08:07:53;12.03;;;5.70;;
69034;SDS011;56091;55.756;37.412;2023-04-24T08:12:55;9.90;;;4.90;;
69034;SDS011;56091;55.756;37.412;2023-04-24T08:17:56;11.30;;;5.40;;
69034;SDS011;56091;55.756;37.412;2023-04-24T08:22:57;13.75;;;5.60;;
69034;SDS011;56091;55.756;37.412;2023-04-24T08:27:58;13.30;;;5.60;;
69034;SDS011;56091;55.756;37.412;2023-04-24T08:32:59;12.50;;;5.80;;
69034;SDS011;56091;55.756;37.412;2023-04-24T08:38:00;11.90;;;5.60;;
69034;SDS011;56091;55.756;37.412;2023-04-24T08:43:01;16.73;;;6.10;;
69034;SDS011;56091;55.756;37.412;2023-04-24T08:48:02;14.38;;;6.00;;
69034;SDS011;56091;55.756;37.412;2023-04-24T08:53:04;11.17;;;5.57;;
69034;SDS011;56091;55.756;37.412;2023-04-24T08:58:07;10.40;;;5.40;;
69034;SDS011;56091;55.756;37.412;2023-04-24T09:03:15;15.23;;;6.30;;
69034;SDS011;56091;55.756;37.412;2023-04-24T09:08:17;10.98;;;5.80;;
69034;SDS011;56091;55.756;37.412;2023-04-24T09:13:19;11.17;;;5.40;;
69034;SDS011;56091;55.756;37.412;2023-04-24T09:18:21;13.10;;;5.75;;
69034;SDS011;56091;55.756;37.412;2023-04-24T09:23:22;12.40;;;5.47;;
69034;SDS011;56091;55.756;37.412;2023-04-24T09:33:37;10.43;;;5.03;;
69034;SDS011;56091;55.756;37.412;2023-04-24T09:38:38;14.82;;;5.32;;
69034;SDS011;56091;55.756;37.412;2023-04-24T09:43:39;12.13;;;5.10;;
69034;SDS011;56091;55.756;37.412;2023-04-24T09:48:40;10.23;;;5.30;;
69034;SDS011;56091;55.756;37.412;2023-04-24T09:53:47;9.27;;;5.10;;
69034;SDS011;56091;55.756;37.412;2023-04-24T09:58:52;10.75;;;5.10;;
69034;SDS011;56091;55.756;37.412;2023-04-24T10:03:53;10.60;;;5.43;;
69034;SDS011;56091;55.756;37.412;2023-04-24T10:08:54;9.75;;;4.97;;
69034;SDS011;56091;55.756;37.412;2023-04-24T10:13:58;12.30;;;4.93;;
69034;SDS011;56091;55.756;37.412;2023-04-24T10:18:59;10.73;;;5.55;;
69034;SDS011;56091;55.756;37.412;2023-04-24T10:24:00;8.80;;;4.57;;
69034;SDS011;56091;55.756;37.412;2023-04-24T10:29:04;9.63;;;4.65;;
69034;SDS011;56091;55.756;37.412;2023-04-24T10:34:10;11.70;;;5.23;;
69034;SDS011;56091;55.756;37.412;2023-04-24T10:39:12;9.38;;;4.93;;
69034;SDS011;56091;55.756;37.412;2023-04-24T10:44:18;11.80;;;5.10;;
69034;SDS011;56091;55.756;37.412;2023-04-24T10:49:29;11.82;;;4.75;;
69034;SDS011;56091;55.756;37.412;2023-04-24T10:59:43;11.32;;;5.13;;
69034;SDS011;56091;55.756;37.412;2023-04-24T11:04:44;11.37;;;5.20;;
69034;SDS011;56091;55.756;37.412;2023-04-24T11:09:46;10.15;;;5.00;;
69034;SDS011;56091;55.756;37.412;2023-04-24T11:15:01;10.37;;;5.30;;
69034;SDS011;56091;55.756;37.412;2023-04-24T11:20:10;8.60;;;4.80;;
69034;SDS011;56091;55.756;37.412;2023-04-24T11:25:12;9.27;;;4.70;;
69034;SDS011;56091;55.756;37.412;2023-04-24T11:30:17;11.52;;;4.40;;
69034;SDS011;56091;55.756;37.412;2023-04-24T11:35:20;9.10;;;4.70;;
69034;SDS011;56091;55.756;37.412;2023-04-24T11:40:25;7.57;;;4.55;;
69034;SDS011;56091;55.756;37.412;2023-04-24T11:45:27;14.60;;;5.30;;
69034;SDS011;56091;55.756;37.412;2023-04-24T11:50:29;14.35;;;4.60;;
69034;SDS011;56091;55.756;37.412;2023-04-24T11:55:30;8.83;;;4.73;;
69034;SDS011;56091;55.756;37.412;2023-04-24T12:00:32;9.75;;;4.82;;
69034;SDS011;56091;55.756;37.412;2023-04-24T12:05:37;8.90;;;4.50;;
69034;SDS011;56091;55.756;37.412;2023-04-24T12:10:38;10.40;;;4.78;;
69034;SDS011;56091;55.756;37.412;2023-04-24T12:15:39;12.40;;;5.03;;
69034;SDS011;56091;55.756;37.412;2023-04-24T12:20:41;7.90;;;4.57;;
69034;SDS011;56091;55.756;37.412;2023-04-24T12:25:42;8.23;;;4.30;;
69034;SDS011;56091;55.756;37.412;2023-04-24T12:30:44;12.57;;;4.73;;
69034;SDS011;56091;55.756;37.412;2023-04-24T12:35:51;8.02;;;4.30;;
69034;SDS011;56091;55.756;37.412;2023-04-24T12:41:04;10.57;;;4.30;;
69034;SDS011;56091;55.756;37.412;2023-04-24T12:46:06;9.57;;;4.97;;
69034;SDS011;56091;55.756;37.412;2023-04-24T12:51:06;8.90;;;4.70;;
69034;SDS011;56091;55.756;37.412;2023-04-24T12:56:07;9.68;;;4.50;;
69034;SDS011;56091;55.756;37.412;2023-04-24T13:01:08;10.00;;;4.10;;
69034;SDS011;56091;55.756;37.412;2023-04-24T13:06:09;11.68;;;4.78;;
69034;SDS011;56091;55.756;37.412;2023-04-24T13:11:10;8.70;;;4.37;;
69034;SDS011;56091;55.756;37.412;2023-04-24T13:16:11;11.05;;;4.32;;
69034;SDS011;56091;55.756;37.412;2023-04-24T13:21:11;12.00;;;4.77;;
69034;SDS011;56091;55.756;37.412;2023-04-24T13:26:12;11.20;;;4.60;;
69034;SDS011;56091;55.756;37.412;2023-04-24T13:31:13;10.33;;;4.77;;
69034;SDS011;56091;55.756;37.412;2023-04-24T13:36:14;9.40;;;4.57;;
69034;SDS011;56091;55.756;37.412;2023-04-24T13:41:15;8.25;;;4.38;;
69034;SDS011;56091;55.756;37.412;2023-04-24T13:46:15;10.07;;;4.30;;
69034;SDS011;56091;55.756;37.412;2023-04-24T13:51:16;12.93;;;4.30;;
69034;SDS011;56091;55.756;37.412;2023-04-24T13:56:17;10.50;;;5.67;;
69034;SDS011;56091;55.756;37.412;2023-04-24T14:01:18;10.80;;;4.38;;
69034;SDS011;56091;55.756;37.412;2023-04-24T14:06:19;12.03;;;4.40;;
69034;SDS011;56091;55.756;37.412;2023-04-24T14:11:20;17.52;;;7.53;;
69034;SDS011;56091;55.756;37.412;2023-04-24T14:16:21;10.53;;;4.30;;
69034;SDS011;56091;55.756;37.412;2023-04-24T14:21:22;15.45;;;6.60;;
69034;SDS011;56091;55.756;37.412;2023-04-24T14:26:23;12.23;;;5.83;;
69034;SDS011;56091;55.756;37.412;2023-04-24T14:31:28;11.05;;;5.97;;
69034;SDS011;56091;55.756;37.412;2023-04-24T14:36:28;9.70;;;6.00;;
69034;SDS011;56091;55.756;37.412;2023-04-24T14:41:30;11.65;;;6.03;;
69034;SDS011;56091;55.756;37.412;2023-04-24T14:46:31;11.17;;;5.70;;
69034;SDS011;56091;55.756;37.412;2023-04-24T14:51:32;12.93;;;5.82;;
69034;SDS011;56091;55.756;37.412;2023-04-24T14:56:33;13.57;;;5.90;;
69034;SDS011;56091;55.756;37.412;2023-04-24T15:01:34;11.20;;;4.72;;
69034;SDS011;56091;55.756;37.412;2023-04-24T15:06:35;10.20;;;5.03;;
69034;SDS011;56091;55.756;37.412;2023-04-24T15:11:36;10.90;;;4.37;;
69034;SDS011;56091;55.756;37.412;2023-04-24T15:16:37;8.55;;;4.00;;
69034;SDS011;56091;55.756;37.412;2023-04-24T15:21:38;8.83;;;4.00;;
69034;SDS011;56091;55.756;37.412;2023-04-24T15:26:40;10.35;;;4.22;;
69034;SDS011;56091;55.756;37.412;2023-04-24T15:31:41;8.17;;;4.20;;
69034;SDS011;56091;55.756;37.412;2023-04-24T15:36:42;9.32;;;4.70;;
69034;SDS011;56091;55.756;37.412;2023-04-24T15:41:43;11.53;;;4.43;;
69034;SDS011;56091;55.756;37.412;2023-04-24T15:46:46;13.23;;;4.50;;
69034;SDS011;56091;55.756;37.412;2023-04-24T15:51:48;11.63;;;4.33;;
69034;SDS011;56091;55.756;37.412;2023-04-24T15:56:49;10.80;;;3.97;;
69034;SDS011;56091;55.756;37.412;2023-04-24T16:01:51;13.40;;;4.10;;
69034;SDS011;56091;55.756;37.412;2023-04-24T16:06:54;11.15;;;4.50;;
69034;SDS011;56091;55.756;37.412;2023-04-24T16:11:56;8.37;;;3.40;;
69034;SDS011;56091;55.756;37.412;2023-04-24T16:16:57;11.45;;;4.00;;
69034;SDS011;56091;55.756;37.412;2023-04-24T16:21:58;15.77;;;4.17;;
69034;SDS011;56091;55.756;37.412;2023-04-24T16:26:59;15.20;;;4.10;;
69034;SDS011;56091;55.756;37.412;2023-04-24T16:32:00;10.90;;;3.78;;
69034;SDS011;56091;55.756;37.412;2023-04-24T16:37:01;13.50;;;4.40;;
69034;SDS011;56091;55.756;37.412;2023-04-24T16:42:03;14.50;;;4.65;;
69034;SDS011;56091;55.756;37.412;2023-04-24T16:47:05;8.00;;;4.20;;
69034;SDS011;56091;55.756;37.412;2023-04-24T16:52:12;11.95;;;4.18;;
69034;SDS011;56091;55.756;37.412;2023-04-24T16:57:13;13.90;;;4.67;;
69034;SDS011;56091;55.756;37.412;2023-04-24T17:02:14;17.67;;;5.25;;
69034;SDS011;56091;55.756;37.412;2023-04-24T17:07:18;14.50;;;4.70;;
69034;SDS011;56091;55.756;37.412;2023-04-24T17:12:18;14.57;;;4.60;;
69034;SDS011;56091;55.756;37.412;2023-04-24T17:17:19;13.17;;;4.70;;
69034;SDS011;56091;55.756;37.412;2023-04-24T17:22:22;9.68;;;4.30;;
69034;SDS011;56091;55.756;37.412;2023-04-24T17:27:23;8.50;;;4.40;;
69034;SDS011;56091;55.756;37.412;2023-04-24T17:32:24;11.60;;;4.63;;
69034;SDS011;56091;55.756;37.412;2023-04-24T17:37:25;11.10;;;4.50;;
69034;SDS011;56091;55.756;37.412;2023-04-24T17:42:26;12.27;;;4.50;;
69034;SDS011;56091;55.756;37.412;2023-04-24T17:47:27;12.17;;;4.47;;
69034;SDS011;56091;55.756;37.412;2023-04-24T17:52:29;10.80;;;4.70;;
69034;SDS011;56091;55.756;37.412;2023-04-24T17:57:30;14.13;;;4.83;;
69034;SDS011;56091;55.756;37.412;2023-04-24T18:02:31;16.90;;;4.80;;
69034;SDS011;56091;55.756;37.412;2023-04-24T18:07:33;21.33;;;5.20;;
69034;SDS011;56091;55.756;37.412;2023-04-24T18:12:33;18.30;;;4.90;;
69034;SDS011;56091;55.756;37.412;2023-04-24T18:17:34;14.93;;;5.07;;
69034;SDS011;56091;55.756;37.412;2023-04-24T18:22:35;16.13;;;4.83;;
69034;SDS011;56091;55.756;37.412;2023-04-24T18:27:36;12.85;;;4.70;;
69034;SDS011;56091;55.756;37.412;2023-04-24T18:32:38;13.57;;;5.20;;
69034;SDS011;56091;55.756;37.412;2023-04-24T18:37:39;17.45;;;5.60;;
69034;SDS011;56091;55.756;37.412;2023-04-24T18:42:40;16.67;;;5.37;;
69034;SDS011;56091;55.756;37.412;2023-04-24T18:47:41;18.45;;;5.40;;
69034;SDS011;56091;55.756;37.412;2023-04-24T18:52:43;18.03;;;5.60;;
69034;SDS011;56091;55.756;37.412;2023-04-24T18:57:43;15.38;;;5.70;;
69034;SDS011;56091;55.756;37.412;2023-04-24T19:02:44;18.27;;;6.00;;
69034;SDS011;56091;55.756;37.412;2023-04-24T19:07:45;18.17;;;5.23;;
69034;SDS011;56091;55.756;37.412;2023-04-24T19:12:46;22.40;;;6.63;;
69034;SDS011;56091;55.756;37.412;2023-04-24T19:17:48;16.97;;;6.10;;
69034;SDS011;56091;55.756;37.412;2023-04-24T19:22:51;16.17;;;6.00;;
69034;SDS011;56091;55.756;37.412;2023-04-24T19:27:52;16.63;;;5.80;;
69034;SDS011;56091;55.756;37.412;2023-04-24T19:32:53;21.77;;;5.95;;
69034;SDS011;56091;55.756;37.412;2023-04-24T19:37:54;22.77;;;5.87;;
69034;SDS011;56091;55.756;37.412;2023-04-24T19:42:56;11.88;;;5.28;;
69034;SDS011;56091;55.756;37.412;2023-04-24T19:47:56;13.90;;;5.70;;
69034;SDS011;56091;55.756;37.412;2023-04-24T19:52:59;14.10;;;5.68;;
69034;SDS011;56091;55.756;37.412;2023-04-24T19:58:00;12.87;;;5.50;;
69034;SDS011;56091;55.756;37.412;2023-04-24T20:03:01;12.75;;;5.40;;
69034;SDS011;56091;55.756;37.412;2023-04-24T20:08:02;17.40;;;5.80;;
69034;SDS011;56091;55.756;37.412;2023-04-24T20:13:03;14.23;;;5.70;;
69034;SDS011;56091;55.756;37.412;2023-04-24T20:18:03;15.27;;;5.70;;
69034;SDS011;56091;55.756;37.412;2023-04-24T20:23:04;12.55;;;5.80;;
69034;SDS011;56091;55.756;37.412;2023-04-24T20:28:05;21.67;;;5.97;;
69034;SDS011;56091;55.756;37.412;2023-04-24T20:33:06;15.02;;;5.80;;
69034;SDS011;56091;55.756;37.412;2023-04-24T20:38:07;19.53;;;5.33;;
69034;SDS011;56091;55.756;37.412;2023-04-24T20:43:11;18.17;;;5.78;;
69034;SDS011;56091;55.756;37.412;2023-04-24T20:48:12;16.17;;;5.50;;
69034;SDS011;56091;55.756;37.412;2023-04-24T20:53:15;16.08;;;5.55;;
69034;SDS011;56091;55.756;37.412;2023-04-24T20:58:16;17.93;;;5.73;;
69034;SDS011;56091;55.756;37.412;2023-04-24T21:03:23;13.98;;;5.68;;
69034;SDS011;56091;55.756;37.412;2023-04-24T21:08:24;22.07;;;6.13;;
69034;SDS011;56091;55.756;37.412;2023-04-24T21:13:25;13.20;;;5.50;;
69034;SDS011;56091;55.756;37.412;2023-04-24T21:18:25;12.40;;;5.65;;
69034;SDS011;56091;55.756;37.412;2023-04-24T21:23:26;12.17;;;5.60;;
69034;SDS011;56091;55.756;37.412;2023-04-24T21:28:27;18.38;;;5.50;;
69034;SDS011;56091;55.756;37.412;2023-04-24T21:33:28;16.53;;;5.80;;
69034;SDS011;56091;55.756;37.412;2023-04-24T21:38:29;12.23;;;5.82;;
69034;SDS011;56091;55.756;37.412;2023-04-24T21:43:30;13.33;;;5.77;;
69034;SDS011;56091;55.756;37.412;2023-04-24T21:48:32;13.00;;;6.07;;
69034;SDS011;56091;55.756;37.412;2023-04-24T21:53:32;17.17;;;5.80;;
69034;SDS011;56091;55.756;37.412;2023-04-24T21:58:33;13.32;;;6.00;;
69034;SDS011;56091;55.756;37.412;2023-04-24T22:03:35;19.97;;;5.90;;
69034;SDS011;56091;55.756;37.412;2023-04-24T22:08:35;15.20;;;5.37;;
69034;SDS011;56091;55.756;37.412;2023-04-24T22:13:36;16.77;;;6.43;;
69034;SDS011;56091;55.756;37.412;2023-04-24T22:18:40;17.47;;;6.20;;
69034;SDS011;56091;55.756;37.412;2023-04-24T22:23:46;13.90;;;5.50;;
69034;SDS011;56091;55.756;37.412;2023-04-24T22:28:47;14.63;;;6.47;;
69034;SDS011;56091;55.756;37.412;2023-04-24T22:33:48;16.65;;;6.70;;
69034;SDS011;56091;55.756;37.412;2023-04-24T22:38:49;15.73;;;6.80;;
69034;SDS011;56091;55.756;37.412;2023-04-24T22:43:49;16.63;;;6.80;;
69034;SDS011;56091;55.756;37.412;2023-04-24T22:48:50;18.70;;;7.10;;
69034;SDS011;56091;55.756;37.412;2023-04-24T22:53:53;18.92;;;6.63;;
69034;SDS011;56091;55.756;37.412;2023-04-24T22:58:54;19.97;;;7.00;;
69034;SDS011;56091;55.756;37.412;2023-04-24T23:03:58;13.73;;;6.53;;
69034;SDS011;56091;55.756;37.412;2023-04-24T23:08:59;16.53;;;6.90;;
69034;SDS011;56091;55.756;37.412;2023-04-24T23:14:00;16.48;;;6.63;;
69034;SDS011;56091;55.756;37.412;2023-04-24T23:19:01;14.13;;;6.80;;
69034;SDS011;56091;55.756;37.412;2023-04-24T23:24:01;16.97;;;6.57;;
69034;SDS011;56091;55.756;37.412;2023-04-24T23:29:02;15.57;;;6.60;;
69034;SDS011;56091;55.756;37.412;2023-04-24T23:34:03;21.40;;;7.37;;
69034;SDS011;56091;55.756;37.412;2023-04-24T23:39:10;15.82;;;6.80;;
69034;SDS011;56091;55.756;37.412;2023-04-24T23:44:11;15.13;;;6.77;;
69034;SDS011;56091;55.756;37.412;2023-04-24T23:49:12;15.75;;;6.45;;
69034;SDS011;56091;55.756;37.412;2023-04-24T23:54:12;16.77;;;7.53;;
69034;SDS011;56091;55.756;37.412;2023-04-24T23:59:13;15.57;;;6.72;;
